Time;durP1;ratioP1;P1;durP2;ratioP2;P2;SDS_P1;SDS_P2;PMS_P1;PMS_P2;Temp;Humidity;BMP_temperature;BMP_pressure;BME280_temperature;BME280_humidity;BME280_pressure;Samples;Min_cycle;Max_cycle;Signal;HPM_P1;HPM_P2
2023/07/22 00:01:05;;;;;;;;;;;21.50;67.20;;;;;;5000967;28;1272;-70
2023/07/22 00:03:31;;;;;;;;;;;21.50;67.20;;;;;;5000227;28;1949;-70
2023/07/22 00:06:03;;;;;;;;;;;21.60;67.30;;;;;;5000455;28;931;-71
2023/07/22 00:08:28;;;;;;;;;;;21.50;67.20;;;;;;4999187;28;1358;-70
2023/07/22 00:10:54;;;;;;;;;;;21.60;67.30;;;;;;5002806;28;1289;-71
2023/07/22 00:13:19;;;;;;;;;;;21.60;67.30;;;;;;5001210;28;1207;-70
2023/07/22 00:15:45;;;;;;;;;;;21.50;67.20;;;;;;4999808;28;1213;-70
2023/07/22 00:18:10;;;;;;;;;;;21.60;67.30;;;;;;5000957;28;1371;-70
2023/07/22 00:20:36;;;;;;;;;;;21.60;67.30;;;;;;4999315;28;1322;-71
2023/07/22 00:23:01;;;;;;;;;;;21.50;67.20;;;;;;4996950;28;1339;-70
2023/07/22 00:25:27;;;;;;;;;;;21.60;67.30;;;;;;4998704;28;1903;-71
2023/07/22 00:27:52;;;;;;;;;;;21.60;67.30;;;;;;5000404;28;1237;-71
2023/07/22 00:30:18;;;;;;;;;;;21.50;67.20;;;;;;4999560;28;1268;-71
2023/07/22 00:32:43;;;;;;;;;;;21.60;67.30;;;;;;5000332;28;858;-70
2023/07/22 00:35:11;;;;;;;;;;;21.60;67.30;;;;;;4998633;28;833;-70
2023/07/22 00:37:37;;;;;;;;;;;21.60;67.30;;;;;;4997344;28;887;-71
2023/07/22 00:40:11;;;;;;;;;;;21.50;67.20;;;;;;5000708;28;1301;-71
2023/07/22 00:42:36;;;;;;;;;;;21.50;67.20;;;;;;5000017;28;1253;-71
2023/07/22 00:45:02;;;;;;;;;;;21.60;67.30;;;;;;5000142;28;1985;-71
2023/07/22 00:47:27;;;;;;;;;;;21.60;67.30;;;;;;5002325;28;958;-70
2023/07/22 00:49:53;;;;;;;;;;;21.50;67.30;;;;;;4999064;28;1216;-71
2023/07/22 00:52:18;;;;;;;;;;;21.60;67.30;;;;;;4985150;28;952;-70
2023/07/22 00:54:44;;;;;;;;;;;21.50;67.20;;;;;;4999692;28;817;-71
2023/07/22 00:57:10;;;;;;;;;;;21.50;67.30;;;;;;4982432;28;837;-70
2023/07/22 00:59:35;;;;;;;;;;;21.60;67.30;;;;;;5001023;28;1385;-70
2023/07/22 01:02:01;;;;;;;;;;;21.50;67.30;;;;;;4998316;28;1399;-70
2023/07/22 01:04:26;;;;;;;;;;;21.50;67.20;;;;;;5002316;28;1898;-70
2023/07/22 01:06:55;;;;;;;;;;;21.60;67.30;;;;;;4999662;28;1361;-72
2023/07/22 01:09:20;;;;;;;;;;;21.50;67.30;;;;;;5000783;28;1441;-70
2023/07/22 01:11:46;;;;;;;;;;;21.50;67.20;;;;;;4999102;28;1461;-68
2023/07/22 01:14:11;;;;;;;;;;;21.50;67.30;;;;;;4999498;28;868;-68
2023/07/22 01:16:37;;;;;;;;;;;21.50;67.30;;;;;;5001238;28;795;-68
2023/07/22 01:19:04;;;;;;;;;;;21.50;67.20;;;;;;4998436;28;1357;-68
2023/07/22 01:21:29;;;;;;;;;;;21.50;67.30;;;;;;4990174;28;1422;-72
2023/07/22 01:23:57;;;;;;;;;;;21.50;67.30;;;;;;4999251;28;1902;-72
2023/07/22 01:26:22;;;;;;;;;;;21.50;67.30;;;;;;4996205;28;844;-71
2023/07/22 01:28:48;;;;;;;;;;;21.60;67.40;;;;;;4996568;28;1373;-72
2023/07/22 01:31:13;;;;;;;;;;;21.60;67.40;;;;;;4997396;28;1386;-72
2023/07/22 01:33:39;;;;;;;;;;;21.50;67.30;;;;;;5003939;28;885;-71
2023/07/22 01:36:04;;;;;;;;;;;21.50;67.30;;;;;;5002200;28;821;-72
2023/07/22 01:38:31;;;;;;;;;;;21.50;67.30;;;;;;5002664;28;857;-71
2023/07/22 01:40:56;;;;;;;;;;;21.60;67.40;;;;;;5002526;28;1196;-72
2023/07/22 01:43:22;;;;;;;;;;;21.60;67.40;;;;;;5000470;28;1910;-71
2023/07/22 01:45:47;;;;;;;;;;;21.50;67.30;;;;;;4999286;28;1051;-71
2023/07/22 01:48:13;;;;;;;;;;;21.50;67.30;;;;;;5003791;28;903;-72
2023/07/22 01:50:38;;;;;;;;;;;21.50;67.30;;;;;;5003257;28;1273;-71
2023/07/22 01:53:05;;;;;;;;;;;21.50;67.40;;;;;;5004994;28;872;-71
2023/07/22 01:55:32;;;;;;;;;;;21.50;67.30;;;;;;5000889;28;880;-68
2023/07/22 01:57:57;;;;;;;;;;;21.50;67.40;;;;;;4999457;28;844;-68
2023/07/22 02:00:23;;;;;;;;;;;21.60;67.50;;;;;;4987213;28;1288;-69
2023/07/22 02:02:48;;;;;;;;;;;21.50;67.40;;;;;;5000341;28;797;-69
2023/07/22 02:05:14;;;;;;;;;;;21.60;67.40;;;;;;5000233;28;1959;-71
2023/07/22 02:07:39;;;;;;;;;;;21.50;67.40;;;;;;5001326;28;1027;-72
2023/07/22 02:10:05;;;;;;;;;;;21.50;67.40;;;;;;5002050;28;1255;-71
2023/07/22 02:12:31;;;;;;;;;;;21.60;67.50;;;;;;5002462;28;870;-71
2023/07/22 02:14:56;;;;;;;;;;;21.50;67.40;;;;;;5000673;28;1038;-71
2023/07/22 02:17:23;;;;;;;;;;;21.50;67.40;;;;;;5003215;28;917;-70
2023/07/22 02:19:48;;;;;;;;;;;21.50;67.40;;;;;;4989711;28;1346;-70
2023/07/22 02:22:14;;;;;;;;;;;21.60;67.40;;;;;;5008635;28;880;-70
2023/07/22 02:24:40;;;;;;;;;;;21.50;67.40;;;;;;5001631;28;1914;-70
2023/07/22 02:27:05;;;;;;;;;;;21.50;67.40;;;;;;5002674;28;1313;-69
2023/07/22 02:29:31;;;;;;;;;;;21.60;67.50;;;;;;5003515;28;1271;-69
2023/07/22 02:31:57;;;;;;;;;;;21.60;67.50;;;;;;5003431;28;846;-69
2023/07/22 02:34:23;;;;;;;;;;;21.50;67.40;;;;;;4998326;28;872;-69
2023/07/22 02:36:48;;;;;;;;;;;21.60;67.50;;;;;;4996655;28;847;-70
2023/07/22 02:39:14;;;;;;;;;;;21.50;67.40;;;;;;5001049;28;817;-70
2023/07/22 02:41:39;;;;;;;;;;;21.50;67.50;;;;;;4995976;28;1308;-70
2023/07/22 02:44:05;;;;;;;;;;;21.50;67.40;;;;;;4999540;28;1902;-70
2023/07/22 02:46:31;;;;;;;;;;;21.60;67.50;;;;;;5001725;28;876;-69
2023/07/22 02:48:57;;;;;;;;;;;21.50;67.40;;;;;;4999815;28;847;-70
2023/07/22 02:51:22;;;;;;;;;;;21.50;67.40;;;;;;5003324;28;1366;-70
2023/07/22 02:53:48;;;;;;;;;;;21.50;67.40;;;;;;5001310;28;1006;-69
2023/07/22 02:56:13;;;;;;;;;;;21.60;67.50;;;;;;4999218;28;864;-70
2023/07/22 02:58:39;;;;;;;;;;;21.50;67.40;;;;;;5002994;28;990;-70
2023/07/22 03:01:05;;;;;;;;;;;21.50;67.40;;;;;;5001468;28;1240;-70
2023/07/22 03:03:32;;;;;;;;;;;21.50;67.50;;;;;;4988532;28;1949;-68
2023/07/22 03:05:59;;;;;;;;;;;21.60;67.50;;;;;;5003616;28;872;-68
2023/07/22 03:08:25;;;;;;;;;;;21.50;67.40;;;;;;5002353;28;1145;-68
2023/07/22 03:10:50;;;;;;;;;;;21.50;67.40;;;;;;5002565;28;1409;-68
2023/07/22 03:13:16;;;;;;;;;;;21.50;67.50;;;;;;5000279;28;883;-68
2023/07/22 03:15:41;;;;;;;;;;;21.50;67.50;;;;;;5000348;28;851;-68
2023/07/22 03:18:07;;;;;;;;;;;21.50;67.50;;;;;;5003561;28;831;-68
2023/07/22 03:20:32;;;;;;;;;;;21.50;67.50;;;;;;5001649;28;1265;-68
2023/07/22 03:22:57;;;;;;;;;;;21.50;67.50;;;;;;4999542;28;885;-68
2023/07/22 03:25:23;;;;;;;;;;;21.50;67.50;;;;;;4997870;28;1902;-68
2023/07/22 03:27:48;;;;;;;;;;;21.50;67.50;;;;;;5002703;28;1308;-68
2023/07/22 03:30:14;;;;;;;;;;;21.50;67.50;;;;;;4998750;28;1260;-71
2023/07/22 03:32:50;;;;;;;;;;;21.50;67.50;;;;;;4999636;28;1018;-71
2023/07/22 03:35:16;;;;;;;;;;;21.50;67.50;;;;;;5001267;28;891;-69
2023/07/22 03:37:41;;;;;;;;;;;21.50;67.50;;;;;;5002006;28;814;-70
2023/07/22 03:40:19;;;;;;;;;;;21.50;67.50;;;;;;5001006;28;1166;-71
2023/07/22 03:42:45;;;;;;;;;;;21.50;67.50;;;;;;5001356;28;859;-71
2023/07/22 03:45:11;;;;;;;;;;;21.50;67.50;;;;;;5000389;28;1973;-72
2023/07/22 03:47:38;;;;;;;;;;;21.50;67.50;;;;;;5001654;28;906;-71
2023/07/22 03:50:03;;;;;;;;;;;21.50;67.50;;;;;;5001052;28;1303;-71
2023/07/22 03:52:29;;;;;;;;;;;21.50;67.50;;;;;;5001746;28;1755;-71
2023/07/22 03:54:54;;;;;;;;;;;21.50;67.50;;;;;;4999623;28;1520;-70
2023/07/22 03:57:24;;;;;;;;;;;21.50;67.50;;;;;;4999228;28;840;-70
2023/07/22 03:59:50;;;;;;;;;;;21.50;67.60;;;;;;5000769;28;1365;-71
2023/07/22 04:02:15;;;;;;;;;;;21.50;67.50;;;;;;5001555;28;848;-71
2023/07/22 04:04:41;;;;;;;;;;;21.50;67.50;;;;;;4997544;28;1977;-71
2023/07/22 04:07:08;;;;;;;;;;;21.50;67.50;;;;;;5002082;28;1073;-70
2023/07/22 04:09:33;;;;;;;;;;;21.50;67.50;;;;;;5001348;28;1353;-70
2023/07/22 04:11:58;;;;;;;;;;;21.50;67.50;;;;;;4999651;28;1051;-70
2023/07/22 04:14:24;;;;;;;;;;;21.50;67.60;;;;;;4998173;28;856;-71
2023/07/22 04:16:49;;;;;;;;;;;21.50;67.50;;;;;;5000360;28;884;-69
2023/07/22 04:19:16;;;;;;;;;;;21.50;67.60;;;;;;5001936;28;1625;-72
2023/07/22 04:21:42;;;;;;;;;;;21.50;67.60;;;;;;4988565;28;1496;-72
2023/07/22 04:24:07;;;;;;;;;;;21.50;67.60;;;;;;4999855;28;1902;-72
2023/07/22 04:26:33;;;;;;;;;;;21.50;67.60;;;;;;4997957;28;958;-72
2023/07/22 04:28:59;;;;;;;;;;;21.50;67.60;;;;;;5000642;28;855;-72
2023/07/22 04:31:24;;;;;;;;;;;21.50;67.60;;;;;;4999836;28;1338;-72
2023/07/22 04:33:50;;;;;;;;;;;21.50;67.60;;;;;;5000996;28;856;-72
2023/07/22 04:36:15;;;;;;;;;;;21.50;67.60;;;;;;5001257;28;788;-68
2023/07/22 04:38:41;;;;;;;;;;;21.50;67.60;;;;;;4997660;28;914;-69
2023/07/22 04:41:06;;;;;;;;;;;21.50;67.60;;;;;;4998112;28;1373;-72
2023/07/22 04:43:32;;;;;;;;;;;21.50;67.60;;;;;;4999010;28;1914;-71
2023/07/22 04:45:58;;;;;;;;;;;21.50;67.60;;;;;;4999119;28;820;-70
2023/07/22 04:48:23;;;;;;;;;;;21.50;67.60;;;;;;5000025;28;911;-72
2023/07/22 04:50:49;;;;;;;;;;;21.50;67.60;;;;;;4997089;28;1387;-71
2023/07/22 04:53:15;;;;;;;;;;;21.50;67.60;;;;;;4997188;28;789;-71
2023/07/22 04:55:41;;;;;;;;;;;21.50;67.60;;;;;;4995744;28;896;-71
2023/07/22 04:58:06;;;;;;;;;;;21.50;67.60;;;;;;5001198;28;893;-68
2023/07/22 05:00:33;;;;;;;;;;;21.50;67.60;;;;;;4996760;28;1275;-69
2023/07/22 05:02:59;;;;;;;;;;;21.50;67.60;;;;;;4989769;28;853;-69
2023/07/22 05:05:24;;;;;;;;;;;21.50;67.60;;;;;;4999537;28;1968;-70
2023/07/22 05:07:50;;;;;;;;;;;21.50;67.70;;;;;;4984669;28;935;-69
2023/07/22 05:10:15;;;;;;;;;;;21.50;67.60;;;;;;4987788;28;1528;-68
2023/07/22 05:12:41;;;;;;;;;;;21.50;67.70;;;;;;4999951;28;1175;-69
2023/07/22 05:15:07;;;;;;;;;;;21.50;67.70;;;;;;4984740;28;907;-70
2023/07/22 05:17:32;;;;;;;;;;;21.50;67.70;;;;;;4997765;28;850;-69
2023/07/22 05:19:58;;;;;;;;;;;21.50;67.70;;;;;;4998079;28;1292;-69
2023/07/22 05:22:23;;;;;;;;;;;21.50;67.70;;;;;;4997221;28;1026;-69
2023/07/22 05:24:49;;;;;;;;;;;21.50;67.70;;;;;;4991194;28;2013;-70
2023/07/22 05:27:15;;;;;;;;;;;21.50;67.70;;;;;;4997341;28;1258;-68
2023/07/22 05:29:40;;;;;;;;;;;21.50;67.70;;;;;;4993576;28;1274;-69
2023/07/22 05:32:06;;;;;;;;;;;21.50;68.40;;;;;;4996074;28;900;-69
2023/07/22 05:34:31;;;;;;;;;;;21.50;67.70;;;;;;4994648;28;879;-69
2023/07/22 05:36:57;;;;;;;;;;;21.50;67.60;;;;;;5000068;28;1058;-69
2023/07/22 05:39:22;;;;;;;;;;;21.50;67.70;;;;;;4999992;28;840;-69
2023/07/22 05:41:48;;;;;;;;;;;21.50;67.70;;;;;;4997464;28;1219;-69
2023/07/22 05:44:13;;;;;;;;;;;21.50;67.70;;;;;;4997721;28;1910;-69
2023/07/22 05:46:39;;;;;;;;;;;21.50;67.70;;;;;;4997963;28;1732;-69
2023/07/22 05:49:05;;;;;;;;;;;21.50;67.70;;;;;;5000950;28;808;-68
2023/07/22 05:51:30;;;;;;;;;;;21.50;67.60;;;;;;4998099;28;1349;-70
2023/07/22 05:53:56;;;;;;;;;;;21.50;67.90;;;;;;4996867;28;883;-70
2023/07/22 05:56:21;;;;;;;;;;;21.50;67.80;;;;;;5001639;28;865;-70
2023/07/22 05:58:46;;;;;;;;;;;21.50;67.40;;;;;;4984551;28;1631;-70
2023/07/22 06:01:12;;;;;;;;;;;21.50;66.50;;;;;;5000159;28;1347;-71
2023/07/22 06:03:38;;;;;;;;;;;21.50;66.30;;;;;;5001230;28;1883;-71
2023/07/22 06:06:04;;;;;;;;;;;21.50;66.00;;;;;;4999451;28;1050;-69
2023/07/22 06:08:29;;;;;;;;;;;21.50;65.70;;;;;;4999548;28;2104;-69
2023/07/22 06:10:56;;;;;;;;;;;21.50;65.60;;;;;;4998807;28;2266;-69
2023/07/22 06:13:21;;;;;;;;;;;21.50;65.30;;;;;;4989771;28;4734;-68
2023/07/22 06:15:46;;;;;;;;;;;21.50;65.20;;;;;;4998054;28;1602;-69
2023/07/22 06:18:13;;;;;;;;;;;21.50;65.10;;;;;;4997424;28;1378;-68
2023/07/22 06:20:38;;;;;;;;;;;21.50;65.00;;;;;;4999604;28;1859;-67
2023/07/22 06:23:04;;;;;;;;;;;21.40;64.90;;;;;;5002334;28;1192;-68
2023/07/22 06:25:29;;;;;;;;;;;21.40;64.90;;;;;;5005172;28;1993;-68
2023/07/22 06:27:55;;;;;;;;;;;21.40;64.80;;;;;;5005456;28;1307;-69
2023/07/22 06:30:20;;;;;;;;;;;21.40;64.80;;;;;;4999037;28;1319;-68
2023/07/22 06:32:46;;;;;;;;;;;21.40;64.90;;;;;;5000011;28;1293;-69
2023/07/22 06:35:11;;;;;;;;;;;21.50;64.70;;;;;;5001551;28;870;-68
2023/07/22 06:37:37;;;;;;;;;;;21.40;64.60;;;;;;5002243;28;942;-68
2023/07/22 06:40:03;;;;;;;;;;;21.40;64.60;;;;;;5004522;28;1221;-68
2023/07/22 06:42:29;;;;;;;;;;;21.40;64.60;;;;;;5001480;28;1312;-68
2023/07/22 06:44:55;;;;;;;;;;;21.40;64.60;;;;;;5001945;28;1914;-69
2023/07/22 06:47:20;;;;;;;;;;;21.40;64.30;;;;;;4987089;28;844;-69
2023/07/22 06:49:45;;;;;;;;;;;21.40;64.20;;;;;;4998575;28;1292;-69
2023/07/22 06:52:11;;;;;;;;;;;21.40;64.20;;;;;;5000535;28;826;-68
2023/07/22 06:54:36;;;;;;;;;;;21.40;64.00;;;;;;5002377;28;848;-68
2023/07/22 06:57:02;;;;;;;;;;;21.40;63.60;;;;;;4998144;28;865;-68
2023/07/22 06:59:28;;;;;;;;;;;21.40;63.80;;;;;;5000854;28;1336;-68
2023/07/22 07:01:54;;;;;;;;;;;21.40;63.60;;;;;;5003712;28;1526;-68
2023/07/22 07:04:19;;;;;;;;;;;21.40;63.60;;;;;;5002946;28;1950;-68
2023/07/22 07:06:45;;;;;;;;;;;21.40;63.60;;;;;;5002605;28;1244;-70
2023/07/22 07:09:11;;;;;;;;;;;21.40;63.50;;;;;;5000400;28;1296;-70
2023/07/22 07:11:36;;;;;;;;;;;21.40;63.30;;;;;;4999819;28;1300;-70
2023/07/22 07:14:03;;;;;;;;;;;21.40;63.20;;;;;;5003786;28;797;-70
2023/07/22 07:16:31;;;;;;;;;;;21.40;63.00;;;;;;4992238;28;868;-70
2023/07/22 07:18:56;;;;;;;;;;;21.40;62.90;;;;;;5000711;28;1265;-69
2023/07/22 07:21:22;;;;;;;;;;;21.30;62.80;;;;;;4997890;28;1303;-69
2023/07/22 07:23:47;;;;;;;;;;;21.30;62.60;;;;;;4999104;28;1907;-70
2023/07/22 07:26:13;;;;;;;;;;;21.30;62.50;;;;;;4998904;28;1031;-70
2023/07/22 07:28:38;;;;;;;;;;;21.30;62.70;;;;;;5001296;28;1389;-70
2023/07/22 07:31:04;;;;;;;;;;;21.30;62.60;;;;;;4999190;28;1368;-70
2023/07/22 07:33:29;;;;;;;;;;;21.40;62.70;;;;;;4998401;28;962;-70
2023/07/22 07:35:55;;;;;;;;;;;21.30;62.40;;;;;;5000675;28;824;-70
2023/07/22 07:38:20;;;;;;;;;;;21.30;62.30;;;;;;4986180;28;959;-70
2023/07/22 07:40:46;;;;;;;;;;;21.30;62.10;;;;;;5003793;28;1280;-70
2023/07/22 07:43:11;;;;;;;;;;;21.30;62.30;;;;;;5002517;28;1054;-70
2023/07/22 07:45:38;;;;;;;;;;;21.30;62.20;;;;;;5000213;28;1973;-69
2023/07/22 07:48:03;;;;;;;;;;;21.30;62.10;;;;;;4999916;28;1027;-69
2023/07/22 07:50:29;;;;;;;;;;;21.30;62.00;;;;;;4997487;28;1383;-68
2023/07/22 07:52:54;;;;;;;;;;;21.30;61.80;;;;;;4987923;28;899;-70
2023/07/22 07:55:20;;;;;;;;;;;21.30;61.50;;;;;;5001354;28;874;-70
2023/07/22 07:57:45;;;;;;;;;;;21.30;61.20;;;;;;4998116;28;1225;-69
2023/07/22 08:00:11;;;;;;;;;;;21.30;61.00;;;;;;5001377;28;1346;-70
2023/07/22 08:02:37;;;;;;;;;;;21.30;60.70;;;;;;5000864;28;869;-70
2023/07/22 08:05:02;;;;;;;;;;;21.30;61.00;;;;;;5000691;28;1902;-69
2023/07/22 08:07:28;;;;;;;;;;;21.30;61.10;;;;;;4987398;28;855;-69
2023/07/22 08:09:53;;;;;;;;;;;21.30;60.90;;;;;;4998772;28;1363;-70
2023/07/22 08:12:19;;;;;;;;;;;21.30;60.80;;;;;;5001581;28;2106;-70
2023/07/22 08:14:44;;;;;;;;;;;21.30;60.00;;;;;;5000151;28;1574;-69
2023/07/22 08:17:10;;;;;;;;;;;21.30;60.00;;;;;;4997666;28;1427;-70
2023/07/22 08:19:35;;;;;;;;;;;21.30;60.20;;;;;;5002069;28;1308;-69
2023/07/22 08:22:01;;;;;;;;;;;21.30;60.10;;;;;;5001735;28;1285;-69
2023/07/22 08:24:26;;;;;;;;;;;21.30;60.40;;;;;;4996719;28;1961;-67
2023/07/22 08:26:52;;;;;;;;;;;21.30;60.30;;;;;;4998735;28;852;-69
2023/07/22 08:29:17;;;;;;;;;;;21.30;60.20;;;;;;4997803;28;1461;-70
2023/07/22 08:31:43;;;;;;;;;;;21.30;59.90;;;;;;4999696;28;1210;-69
2023/07/22 08:34:08;;;;;;;;;;;21.30;59.60;;;;;;4997903;28;1673;-69
2023/07/22 08:36:34;;;;;;;;;;;21.30;59.50;;;;;;4998335;28;860;-70
2023/07/22 08:38:59;;;;;;;;;;;21.30;59.40;;;;;;4994566;28;932;-69
2023/07/22 08:41:25;;;;;;;;;;;21.30;59.50;;;;;;4995206;28;1291;-68
2023/07/22 08:43:51;;;;;;;;;;;21.30;59.30;;;;;;4985574;28;1914;-70
2023/07/22 08:46:16;;;;;;;;;;;21.30;59.40;;;;;;4998030;28;995;-70
2023/07/22 08:48:42;;;;;;;;;;;21.30;59.50;;;;;;4997906;28;856;-69
2023/07/22 08:51:12;;;;;;;;;;;21.30;59.30;;;;;;4999775;28;1366;-69
2023/07/22 08:53:38;;;;;;;;;;;21.30;59.20;;;;;;4998607;28;1643;-70
2023/07/22 08:56:03;;;;;;;;;;;21.20;59.10;;;;;;5001366;28;1457;-70
2023/07/22 08:58:29;;;;;;;;;;;21.30;59.00;;;;;;4998770;28;852;-70
2023/07/22 09:00:54;;;;;;;;;;;21.30;59.10;;;;;;4998529;28;1354;-70
2023/07/22 09:03:20;;;;;;;;;;;21.30;59.10;;;;;;5001993;28;881;-68
2023/07/22 09:05:45;;;;;;;;;;;21.30;59.10;;;;;;4986126;28;1963;-70
2023/07/22 09:08:11;;;;;;;;;;;21.20;58.90;;;;;;4997555;28;1022;-69
2023/07/22 09:10:36;;;;;;;;;;;21.20;58.90;;;;;;4999926;28;1252;-70
2023/07/22 09:13:02;;;;;;;;;;;21.30;58.60;;;;;;4986362;28;849;-70
2023/07/22 09:15:27;;;;;;;;;;;21.20;58.30;;;;;;4997189;28;950;-70
2023/07/22 09:17:53;;;;;;;;;;;21.20;58.10;;;;;;4995565;28;1026;-69
2023/07/22 09:20:19;;;;;;;;;;;21.20;58.00;;;;;;4998867;28;1287;-70
2023/07/22 09:22:45;;;;;;;;;;;21.20;58.30;;;;;;4997918;28;824;-70
2023/07/22 09:25:16;;;;;;;;;;;21.20;58.50;;;;;;4997508;28;1906;-70
2023/07/22 09:27:42;;;;;;;;;;;21.20;58.40;;;;;;5001321;28;1330;-70
2023/07/22 09:30:24;;;;;;;;;;;21.20;58.30;;;;;;5000942;28;1278;-70
2023/07/22 09:32:50;;;;;;;;;;;21.20;58.50;;;;;;5001726;28;824;-68
2023/07/22 09:35:16;;;;;;;;;;;21.20;58.20;;;;;;4994960;28;889;-69
2023/07/22 09:37:41;;;;;;;;;;;21.20;58.50;;;;;;4997069;28;841;-70
2023/07/22 09:40:17;;;;;;;;;;;21.20;58.70;;;;;;4999200;28;1188;-70
2023/07/22 09:42:52;;;;;;;;;;;21.20;58.60;;;;;;5000427;28;841;-69
2023/07/22 09:45:18;;;;;;;;;;;21.20;58.60;;;;;;4996709;28;1957;-70
2023/07/22 09:47:46;;;;;;;;;;;21.30;58.60;;;;;;4996573;28;867;-70
2023/07/22 09:50:13;;;;;;;;;;;21.30;58.90;;;;;;4999384;28;1359;-68
2023/07/22 09:52:45;;;;;;;;;;;21.30;58.90;;;;;;5001192;28;1472;-70
2023/07/22 09:55:12;;;;;;;;;;;21.20;58.60;;;;;;5001226;28;1546;-70
2023/07/22 09:57:38;;;;;;;;;;;21.20;58.40;;;;;;5004476;28;1396;-69
2023/07/22 10:00:04;;;;;;;;;;;21.30;58.50;;;;;;5000846;28;1378;-69
2023/07/22 10:02:29;;;;;;;;;;;21.30;58.60;;;;;;4983622;28;845;-70
2023/07/22 10:04:55;;;;;;;;;;;21.30;58.50;;;;;;4997716;28;1891;-70
2023/07/22 10:07:20;;;;;;;;;;;21.30;58.50;;;;;;4993554;28;873;-69
2023/07/22 10:09:46;;;;;;;;;;;21.30;58.80;;;;;;5001581;28;1339;-70
2023/07/22 10:12:14;;;;;;;;;;;21.30;58.90;;;;;;4987685;28;1000;-70
2023/07/22 10:14:40;;;;;;;;;;;21.30;58.70;;;;;;5002495;28;891;-69
2023/07/22 10:17:06;;;;;;;;;;;21.30;58.50;;;;;;4998225;28;1006;-69
2023/07/22 10:19:31;;;;;;;;;;;21.30;58.60;;;;;;4985647;28;1360;-69
2023/07/22 10:21:57;;;;;;;;;;;21.30;58.40;;;;;;5001837;28;1284;-70
2023/07/22 10:24:22;;;;;;;;;;;21.30;58.50;;;;;;4993379;28;1973;-70
2023/07/22 10:26:51;;;;;;;;;;;21.30;58.10;;;;;;4987166;28;860;-70
2023/07/22 10:29:16;;;;;;;;;;;21.30;57.80;;;;;;5001820;28;1299;-69
2023/07/22 10:31:41;;;;;;;;;;;21.30;58.10;;;;;;5002740;28;1263;-69
2023/07/22 10:34:07;;;;;;;;;;;21.30;58.30;;;;;;5004074;28;1018;-70
2023/07/22 10:36:33;;;;;;;;;;;21.30;58.00;;;;;;5002503;28;908;-70
2023/07/22 10:38:58;;;;;;;;;;;21.40;58.00;;;;;;5003417;28;916;-70
2023/07/22 10:41:24;;;;;;;;;;;21.30;58.20;;;;;;5000946;28;1273;-69
2023/07/22 10:43:56;;;;;;;;;;;21.30;58.10;;;;;;4998674;28;1930;-70
2023/07/22 10:46:32;;;;;;;;;;;21.40;57.90;;;;;;5001871;28;903;-70
2023/07/22 10:49:06;;;;;;;;;;;21.40;57.90;;;;;;5000605;28;844;-70
2023/07/22 10:51:35;;;;;;;;;;;21.30;58.10;;;;;;5000319;28;2152;-70
2023/07/22 10:54:00;;;;;;;;;;;21.40;57.90;;;;;;4999660;28;1343;-69
2023/07/22 10:56:26;;;;;;;;;;;21.40;57.60;;;;;;5001478;28;1420;-70
2023/07/22 10:58:52;;;;;;;;;;;21.40;56.80;;;;;;5001219;28;1341;-69
2023/07/22 11:01:24;;;;;;;;;;;21.40;57.30;;;;;;5003793;28;1293;-69
2023/07/22 11:04:10;;;;;;;;;;;21.40;57.40;;;;;;5000273;28;1899;-69
2023/07/22 11:06:36;;;;;;;;;;;21.40;57.30;;;;;;5002365;28;942;-68
2023/07/22 11:09:01;;;;;;;;;;;21.40;57.10;;;;;;5001867;28;1027;-70
2023/07/22 11:11:37;;;;;;;;;;;21.40;56.20;;;;;;5004584;28;1401;-70
2023/07/22 11:14:15;;;;;;;;;;;21.40;56.70;;;;;;4987776;28;1527;-70
2023/07/22 11:16:44;;;;;;;;;;;21.40;56.60;;;;;;5001617;28;868;-70
2023/07/22 11:19:10;;;;;;;;;;;21.40;57.00;;;;;;4999998;28;1804;-70
2023/07/22 11:21:35;;;;;;;;;;;21.40;56.10;;;;;;5001855;28;1927;-68
2023/07/22 11:24:02;;;;;;;;;;;21.40;56.60;;;;;;5000014;28;1930;-71
2023/07/22 11:26:28;;;;;;;;;;;21.40;56.50;;;;;;5001199;28;2111;-70
2023/07/22 11:28:53;;;;;;;;;;;21.40;56.50;;;;;;5001031;28;1233;-69
2023/07/22 11:31:19;;;;;;;;;;;21.40;56.10;;;;;;4995531;28;2091;-70
2023/07/22 11:33:46;;;;;;;;;;;21.40;56.10;;;;;;5004068;28;1961;-70
2023/07/22 11:36:13;;;;;;;;;;;21.50;56.00;;;;;;5001713;28;2155;-68
2023/07/22 11:38:38;;;;;;;;;;;21.50;56.00;;;;;;5000182;28;1895;-67
2023/07/22 11:41:04;;;;;;;;;;;21.50;55.90;;;;;;5001762;28;1929;-69
2023/07/22 11:43:29;;;;;;;;;;;21.50;57.60;;;;;;4997545;28;1915;-69
2023/07/22 11:45:55;;;;;;;;;;;21.50;56.70;;;;;;4985600;28;2114;-69
2023/07/22 11:48:20;;;;;;;;;;;21.60;56.40;;;;;;4985665;28;1397;-70
2023/07/22 11:50:45;;;;;;;;;;;21.50;56.30;;;;;;4999447;28;1264;-70
2023/07/22 11:53:11;;;;;;;;;;;21.50;56.40;;;;;;4996066;28;2132;-70
2023/07/22 11:55:36;;;;;;;;;;;21.50;56.30;;;;;;4998970;28;1884;-70
2023/07/22 11:58:03;;;;;;;;;;;21.50;56.30;;;;;;4999325;28;1332;-70
2023/07/22 12:00:28;;;;;;;;;;;21.60;56.40;;;;;;4996033;28;1342;-71
2023/07/22 12:02:57;;;;;;;;;;;21.50;56.50;;;;;;4998780;28;876;-70
2023/07/22 12:05:22;;;;;;;;;;;21.50;56.80;;;;;;4986248;28;1898;-71
2023/07/22 12:07:48;;;;;;;;;;;21.50;57.00;;;;;;4998726;28;900;-70
2023/07/22 12:10:15;;;;;;;;;;;21.50;56.10;;;;;;4999991;28;1299;-70
2023/07/22 12:12:48;;;;;;;;;;;21.50;56.40;;;;;;4982096;28;1531;-70
2023/07/22 12:15:20;;;;;;;;;;;21.50;55.50;;;;;;4999898;28;771;-71
2023/07/22 12:17:56;;;;;;;;;;;21.50;56.50;;;;;;4999658;28;866;-70
2023/07/22 12:20:25;;;;;;;;;;;21.50;55.60;;;;;;4999552;28;1372;-71
2023/07/22 12:22:51;;;;;;;;;;;21.50;55.70;;;;;;4998863;28;824;-71
2023/07/22 12:25:16;;;;;;;;;;;21.50;55.00;;;;;;4989618;28;1961;-70
2023/07/22 12:27:43;;;;;;;;;;;21.60;54.90;;;;;;5002278;28;978;-69
2023/07/22 12:30:08;;;;;;;;;;;21.50;54.80;;;;;;4999951;28;1243;-70
2023/07/22 12:32:34;;;;;;;;;;;21.50;54.70;;;;;;4999994;28;899;-70
2023/07/22 12:34:59;;;;;;;;;;;21.60;54.40;;;;;;5002489;28;813;-70
2023/07/22 12:37:25;;;;;;;;;;;21.60;54.40;;;;;;5002960;28;896;-70
2023/07/22 12:39:51;;;;;;;;;;;21.60;53.90;;;;;;5003494;28;1260;-70
2023/07/22 12:42:16;;;;;;;;;;;21.60;53.90;;;;;;4999420;28;923;-70
2023/07/22 12:44:42;;;;;;;;;;;21.60;54.00;;;;;;4999799;28;1910;-71
2023/07/22 12:47:07;;;;;;;;;;;21.60;54.20;;;;;;4999940;28;998;-71
2023/07/22 12:49:33;;;;;;;;;;;21.60;54.50;;;;;;5002481;28;1251;-70
2023/07/22 12:52:04;;;;;;;;;;;21.60;54.50;;;;;;4999267;28;1058;-71
2023/07/22 12:54:31;;;;;;;;;;;21.70;55.10;;;;;;4996015;28;1214;-71
2023/07/22 12:56:56;;;;;;;;;;;21.60;54.70;;;;;;4996891;28;836;-71
2023/07/22 12:59:22;;;;;;;;;;;21.60;54.40;;;;;;4996699;28;995;-71
2023/07/22 13:01:47;;;;;;;;;;;21.60;55.00;;;;;;5000265;28;1324;-71
2023/07/22 13:04:12;;;;;;;;;;;21.70;55.40;;;;;;5003782;28;1907;-72
2023/07/22 13:06:38;;;;;;;;;;;21.60;55.00;;;;;;5000925;28;927;-71
2023/07/22 13:09:03;;;;;;;;;;;21.60;55.90;;;;;;4995974;28;799;-69
2023/07/22 13:11:29;;;;;;;;;;;21.60;55.60;;;;;;4996608;28;1271;-71
2023/07/22 13:13:54;;;;;;;;;;;21.60;55.90;;;;;;5004540;28;896;-71
2023/07/22 13:16:20;;;;;;;;;;;21.60;55.00;;;;;;4996453;28;1253;-71
2023/07/22 13:18:45;;;;;;;;;;;21.60;54.40;;;;;;5001491;28;1367;-71
2023/07/22 13:21:11;;;;;;;;;;;21.60;55.40;;;;;;4998424;28;1330;-71
2023/07/22 13:23:36;;;;;;;;;;;21.60;54.50;;;;;;4997956;28;1906;-70
2023/07/22 13:26:02;;;;;;;;;;;21.50;54.20;;;;;;4999567;28;824;-71
2023/07/22 13:28:27;;;;;;;;;;;21.50;55.10;;;;;;4998780;28;1460;-71
2023/07/22 13:30:52;;;;;;;;;;;21.60;55.30;;;;;;4995652;28;1237;-70
2023/07/22 13:33:18;;;;;;;;;;;21.60;55.00;;;;;;4998433;28;860;-71
2023/07/22 13:35:44;;;;;;;;;;;21.50;54.70;;;;;;4999603;28;923;-71
2023/07/22 13:38:09;;;;;;;;;;;21.60;54.50;;;;;;4998874;28;959;-71
2023/07/22 13:40:35;;;;;;;;;;;21.60;54.40;;;;;;4998337;28;1198;-71
2023/07/22 13:43:01;;;;;;;;;;;21.60;55.30;;;;;;4986225;28;1393;-71
2023/07/22 13:45:26;;;;;;;;;;;21.60;55.70;;;;;;5007387;28;1942;-71
2023/07/22 13:47:52;;;;;;;;;;;21.60;55.90;;;;;;5000060;28;814;-71
2023/07/22 13:50:17;;;;;;;;;;;21.60;55.70;;;;;;4998860;28;1345;-71
2023/07/22 13:52:43;;;;;;;;;;;21.60;55.00;;;;;;5001037;28;870;-71
2023/07/22 13:55:09;;;;;;;;;;;21.60;55.50;;;;;;4995743;28;879;-71
2023/07/22 13:57:34;;;;;;;;;;;21.50;54.90;;;;;;4999903;28;856;-71
2023/07/22 14:00:00;;;;;;;;;;;21.60;55.00;;;;;;4997391;28;1315;-70
2023/07/22 14:02:25;;;;;;;;;;;21.60;55.30;;;;;;5000811;28;942;-71
2023/07/22 14:04:51;;;;;;;;;;;21.50;54.90;;;;;;4995044;28;1894;-71
2023/07/22 14:07:17;;;;;;;;;;;21.60;55.50;;;;;;4997048;28;936;-71
2023/07/22 14:09:43;;;;;;;;;;;21.50;55.80;;;;;;4999906;28;1240;-71
2023/07/22 14:12:08;;;;;;;;;;;21.60;55.70;;;;;;4996231;28;801;-70
2023/07/22 14:14:34;;;;;;;;;;;21.50;55.90;;;;;;4996025;28;915;-70
2023/07/22 14:16:59;;;;;;;;;;;21.50;55.40;;;;;;4982495;28;880;-71
2023/07/22 14:19:25;;;;;;;;;;;21.50;55.90;;;;;;4999842;28;1511;-72
2023/07/22 14:21:50;;;;;;;;;;;21.50;55.30;;;;;;4996278;28;1449;-72
2023/07/22 14:24:16;;;;;;;;;;;21.50;55.40;;;;;;4994204;28;1964;-71
2023/07/22 14:26:41;;;;;;;;;;;21.50;54.40;;;;;;4991210;28;1422;-72
2023/07/22 14:29:07;;;;;;;;;;;21.50;54.00;;;;;;4999546;28;1272;-71